createdAt,value
2023-03-13T00:02:06.520Z,2.17
2023-03-13T00:04:34.616Z,3.00
2023-03-13T00:07:02.558Z,2.97
2023-03-13T00:09:31.458Z,2.40
2023-03-13T00:11:59.515Z,2.65
2023-03-13T00:14:27.578Z,2.45
2023-03-13T00:16:55.527Z,2.50
2023-03-13T00:19:24.632Z,2.90
2023-03-13T00:21:52.824Z,2.40
2023-03-13T00:24:21.086Z,1.92
2023-03-13T00:26:50.165Z,2.45
2023-03-13T00:29:18.189Z,3.00
2023-03-13T00:31:46.356Z,2.22
2023-03-13T00:34:14.579Z,2.47
2023-03-13T00:36:42.918Z,2.85
2023-03-13T00:39:11.305Z,2.95
2023-03-13T00:41:39.145Z,2.13
2023-03-13T00:44:08.531Z,2.38
2023-03-13T00:46:37.439Z,2.38
2023-03-13T00:49:08.736Z,2.50
2023-03-13T00:51:36.843Z,3.38
2023-03-13T00:54:05.224Z,2.22
2023-03-13T00:56:36.059Z,2.42
2023-03-13T00:59:04.607Z,2.00
2023-03-13T01:01:38.982Z,2.25
2023-03-13T01:04:09.303Z,1.65
2023-03-13T01:06:40.730Z,2.05
2023-03-13T01:09:11.429Z,2.00
2023-03-13T01:11:41.285Z,1.97
2023-03-13T01:14:20.192Z,2.00
2023-03-13T01:16:48.314Z,2.00
2023-03-13T01:19:17.333Z,1.65
2023-03-13T01:21:47.711Z,1.80
2023-03-13T01:24:17.086Z,2.05
2023-03-13T01:26:44.881Z,2.25
2023-03-13T01:29:13.125Z,3.53
2023-03-13T01:31:41.217Z,1.75
2023-03-13T01:34:10.511Z,2.95
2023-03-13T01:36:39.249Z,1.92
2023-03-13T01:39:07.965Z,2.50
2023-03-13T01:41:35.927Z,2.28
2023-03-13T01:44:04.177Z,2.47
2023-03-13T01:46:41.266Z,1.90
2023-03-13T01:49:28.429Z,2.22
2023-03-13T01:52:31.400Z,2.22
2023-03-13T01:55:19.834Z,2.25
2023-03-13T04:48:47.066Z,1.90
2023-03-13T04:51:41.122Z,2.30
2023-03-13T04:54:30.090Z,1.77
2023-03-13T04:57:04.024Z,1.55
2023-03-13T04:59:38.429Z,3.35
2023-03-13T05:03:20.013Z,2.05
2023-03-13T05:05:58.674Z,2.10
2023-03-13T05:08:44.497Z,2.35
2023-03-13T05:11:32.645Z,1.85
2023-03-13T05:14:19.914Z,2.00
2023-03-13T05:16:57.566Z,1.77
2023-03-13T05:19:42.241Z,2.10
2023-03-13T05:22:24.568Z,1.85
2023-03-13T05:25:11.571Z,1.52
2023-03-13T05:27:55.513Z,1.50
2023-03-13T05:30:49.739Z,1.42
2023-03-13T05:33:34.899Z,1.17
2023-03-13T05:36:09.015Z,1.27
2023-03-13T05:38:39.904Z,1.17
2023-03-13T05:41:10.811Z,1.10
2023-03-13T05:43:57.375Z,1.58
2023-03-13T05:46:48.268Z,1.20
2023-03-13T05:49:43.797Z,1.25
2023-03-13T05:52:30.228Z,1.20
2023-03-13T05:54:58.096Z,1.85
2023-03-13T05:57:44.305Z,1.45
2023-03-13T06:00:38.325Z,0.75
2023-03-13T06:03:26.212Z,0.75
2023-03-13T06:05:59.861Z,1.08
2023-03-13T06:08:36.917Z,1.10
2023-03-13T06:11:04.972Z,1.13
2023-03-13T06:13:34.164Z,0.70
2023-03-13T06:16:09.250Z,1.40
2023-03-13T06:18:48.907Z,1.17
2023-03-13T06:21:17.194Z,0.90
2023-03-13T06:23:45.776Z,1.00
2023-03-13T06:26:13.835Z,0.82
2023-03-13T06:28:41.587Z,1.10
2023-03-13T06:31:10.490Z,0.77
2023-03-13T06:33:38.635Z,1.10
2023-03-13T06:36:07.340Z,1.13
2023-03-13T06:38:35.716Z,1.02
2023-03-13T06:41:03.856Z,1.08
2023-03-13T06:43:31.983Z,1.25
2023-03-13T06:46:05.757Z,1.10
2023-03-13T06:48:34.512Z,1.08
2023-03-13T06:51:02.636Z,1.45
2023-03-13T06:53:30.505Z,0.82
2023-03-13T06:56:02.969Z,1.35
2023-03-13T06:58:32.837Z,1.05
2023-03-13T07:01:12.553Z,1.00
2023-03-13T07:03:43.886Z,0.90
2023-03-13T07:06:13.036Z,1.10
2023-03-13T07:08:41.120Z,1.08
2023-03-13T07:11:11.364Z,1.58
2023-03-13T07:13:39.456Z,1.33
2023-03-13T07:16:09.917Z,0.98
2023-03-13T07:18:38.557Z,0.90
2023-03-13T07:21:06.636Z,0.73
2023-03-13T07:23:36.258Z,1.10
2023-03-13T07:26:06.796Z,0.80
2023-03-13T07:28:37.651Z,1.10
2023-03-13T07:31:17.083Z,1.00
2023-03-13T07:33:45.768Z,1.10
2023-03-13T07:36:15.750Z,0.95
2023-03-13T07:38:44.300Z,0.88
2023-03-13T07:41:15.347Z,0.95
2023-03-13T07:43:43.536Z,1.00
2023-03-13T07:46:14.159Z,0.90
2023-03-13T07:48:43.506Z,1.23
2023-03-13T07:51:44.007Z,0.85
2023-03-13T07:54:12.516Z,0.70
2023-03-13T07:56:40.717Z,0.65
2023-03-13T07:59:09.390Z,0.80
2023-03-13T08:01:37.691Z,0.70
2023-03-13T08:04:05.878Z,1.13
2023-03-13T08:06:38.259Z,1.02
2023-03-13T08:09:06.660Z,1.00
2023-03-13T08:11:34.989Z,0.95
2023-03-13T08:14:03.281Z,0.90
2023-03-13T08:16:34.654Z,0.82
2023-03-13T08:21:35.494Z,0.85
2023-03-13T08:24:08.635Z,0.87
2023-03-13T08:26:38.092Z,1.42
2023-03-13T08:29:11.543Z,1.10
2023-03-13T08:31:48.090Z,1.00
2023-03-13T08:34:17.710Z,0.65
2023-03-13T08:36:46.410Z,1.25
2023-03-13T08:39:16.750Z,0.73
2023-03-13T08:41:44.894Z,0.88
2023-03-13T08:44:15.044Z,1.05
2023-03-13T08:46:44.339Z,0.80
2023-03-13T08:49:14.369Z,0.70
2023-03-13T08:51:42.520Z,0.80
2023-03-13T08:54:10.918Z,1.25
2023-03-13T08:56:39.036Z,0.70
2023-03-13T08:59:07.405Z,0.90
2023-03-13T09:01:36.482Z,0.90
2023-03-13T09:04:07.750Z,0.68
2023-03-13T09:06:37.416Z,0.80
2023-03-13T09:09:06.380Z,0.82
2023-03-13T09:11:34.802Z,0.85
2023-03-13T09:14:02.779Z,1.13
2023-03-13T09:16:32.939Z,0.70
2023-03-13T09:19:04.324Z,0.63
2023-03-13T09:21:37.871Z,0.70
2023-03-13T09:24:05.944Z,0.70
2023-03-13T09:26:34.151Z,0.88
2023-03-13T09:29:02.078Z,0.75
2023-03-13T09:31:31.687Z,0.75
2023-03-13T09:34:00.507Z,0.80
2023-03-13T09:36:29.162Z,0.63
2023-03-13T09:38:59.262Z,0.88
2023-03-13T09:41:43.799Z,0.90
2023-03-13T09:44:40.627Z,0.98
2023-03-13T09:47:22.309Z,0.57
2023-03-13T09:49:57.663Z,0.70
2023-03-13T09:52:27.952Z,0.85
2023-03-13T09:55:03.727Z,0.50
2023-03-13T09:57:56.433Z,0.90
2023-03-13T10:00:32.089Z,0.90
2023-03-13T10:03:17.183Z,1.00
2023-03-13T10:05:56.238Z,0.80
2023-03-13T10:08:26.134Z,0.70
2023-03-13T10:11:11.118Z,0.70
2023-03-13T10:13:51.510Z,0.90
2023-03-13T10:16:38.879Z,0.70
2023-03-13T10:19:16.460Z,0.60
2023-03-13T10:21:47.971Z,0.75
2023-03-13T10:24:30.654Z,0.85
2023-03-13T10:26:58.781Z,0.63
2023-03-13T10:29:29.432Z,0.73
2023-03-13T10:32:02.285Z,0.65
2023-03-13T10:34:57.376Z,1.20
2023-03-13T10:37:34.082Z,0.75
2023-03-13T10:40:23.442Z,0.82
2023-03-13T10:42:53.633Z,0.95
2023-03-13T10:45:25.210Z,0.70
2023-03-13T10:47:58.541Z,0.90
2023-03-13T10:50:27.629Z,0.70
2023-03-13T10:52:56.078Z,0.80
2023-03-13T10:55:26.132Z,1.00
2023-03-13T10:58:04.869Z,0.65
2023-03-13T11:00:36.308Z,0.88
2023-03-13T11:05:39.932Z,0.60
2023-03-13T11:08:25.439Z,0.80
2023-03-13T11:11:02.390Z,0.80
2023-03-13T11:13:37.295Z,0.68
2023-03-13T11:16:29.960Z,0.63
2023-03-13T11:19:14.513Z,0.60
2023-03-13T11:22:21.538Z,0.68
2023-03-13T11:24:59.350Z,0.60
2023-03-13T11:27:36.468Z,0.90
2023-03-13T11:30:07.338Z,0.80
2023-03-13T11:32:56.500Z,0.80
2023-03-13T11:35:48.728Z,0.70
2023-03-13T11:38:28.206Z,0.63
2023-03-13T11:40:59.148Z,0.75
2023-03-13T11:43:50.696Z,0.77
2023-03-13T11:46:38.604Z,0.80
2023-03-13T11:49:13.048Z,0.73
2023-03-13T11:52:08.153Z,0.60
2023-03-13T11:55:14.549Z,0.70
2023-03-13T11:58:04.097Z,1.08
2023-03-13T12:00:42.126Z,0.75
2023-03-13T12:03:36.213Z,0.85
2023-03-13T12:06:13.183Z,0.73
2023-03-13T12:08:51.416Z,0.63
2023-03-13T12:33:06.914Z,0.40
2023-03-13T12:35:36.283Z,0.90
2023-03-13T12:46:48.136Z,0.60
2023-03-13T12:49:33.893Z,0.52
2023-03-13T12:52:37.352Z,0.73
2023-03-13T12:55:24.572Z,0.60
2023-03-13T12:58:09.150Z,0.60
2023-03-13T13:00:40.094Z,0.60
2023-03-13T13:03:42.765Z,0.40
2023-03-13T13:06:15.956Z,0.77
2023-03-13T13:08:49.473Z,0.60
2023-03-13T13:11:38.844Z,0.52
2023-03-13T13:14:18.700Z,0.60
2023-03-13T13:16:54.617Z,0.73
2023-03-13T13:19:25.515Z,0.70
2023-03-13T13:22:31.109Z,0.50
2023-03-13T13:25:01.172Z,0.70
2023-03-13T13:27:38.035Z,0.70
2023-03-13T13:30:30.850Z,0.68
2023-03-13T13:33:19.027Z,0.77
2023-03-13T13:35:49.083Z,0.57
2023-03-13T13:38:20.358Z,0.57
2023-03-13T13:41:05.476Z,0.47
2023-03-13T13:43:45.962Z,0.40
2023-03-13T13:46:29.520Z,0.50
2023-03-13T13:49:06.880Z,0.35
2023-03-13T13:51:39.509Z,0.98
2023-03-13T13:54:19.491Z,0.95
2023-03-13T13:57:07.973Z,0.60
2023-03-13T13:59:45.441Z,0.40
2023-03-13T14:02:22.768Z,0.55
2023-03-13T14:05:01.370Z,0.60
2023-03-13T14:07:41.143Z,0.60
2023-03-13T14:10:27.162Z,0.88
2023-03-13T14:12:57.323Z,0.60
2023-03-13T14:15:32.851Z,0.55
2023-03-13T14:18:14.573Z,0.50
2023-03-13T14:21:00.636Z,0.30
2023-03-13T14:23:42.617Z,0.70
2023-03-13T14:26:23.088Z,0.52
2023-03-13T14:28:55.931Z,0.52
2023-03-13T14:31:35.085Z,0.55
2023-03-13T14:37:04.344Z,0.40
2023-03-13T14:39:45.638Z,0.57
2023-03-13T14:42:15.577Z,0.43
2023-03-13T14:44:46.840Z,0.30
2023-03-13T14:47:21.810Z,0.68
2023-03-13T14:49:50.202Z,0.30
2023-03-13T14:52:24.561Z,0.35
2023-03-13T14:55:26.046Z,0.50
2023-03-13T15:00:49.867Z,0.32
2023-03-13T15:03:19.229Z,0.50
2023-03-13T15:06:07.795Z,0.40
2023-03-13T15:08:44.695Z,0.40
2023-03-13T15:11:28.157Z,0.30
2023-03-13T15:13:57.952Z,0.57
2023-03-13T15:16:28.249Z,0.30
2023-03-13T15:18:56.809Z,0.60
2023-03-13T15:21:30.030Z,0.30
2023-03-13T15:24:14.448Z,0.40
2023-03-13T15:26:42.324Z,0.30
2023-03-13T15:29:11.297Z,0.28
2023-03-13T15:31:40.024Z,0.63
2023-03-13T15:34:13.155Z,0.40
2023-03-13T15:36:42.679Z,0.32
2023-03-13T15:39:20.650Z,0.30
2023-03-13T15:41:48.625Z,0.30
2023-03-13T15:44:16.643Z,0.50
2023-03-13T15:46:44.486Z,0.30
2023-03-13T15:49:13.627Z,0.30
2023-03-13T15:51:41.854Z,0.85
2023-03-13T15:54:10.263Z,0.38
2023-03-13T15:56:39.224Z,0.63
2023-03-13T15:59:14.533Z,0.43
2023-03-13T16:01:45.383Z,0.47
2023-03-13T16:04:13.740Z,0.50
2023-03-13T16:06:50.889Z,0.80
2023-03-13T16:09:18.823Z,0.63
2023-03-13T16:11:46.939Z,0.80
2023-03-13T16:14:14.930Z,0.50
2023-03-13T16:16:42.956Z,0.60
2023-03-13T16:19:11.554Z,0.50
2023-03-13T16:21:43.324Z,0.60
2023-03-13T16:24:11.057Z,0.60
2023-03-13T16:26:40.003Z,0.50
2023-03-13T16:29:10.062Z,0.47
2023-03-13T16:31:38.351Z,0.30
2023-03-13T16:34:07.289Z,0.65
2023-03-13T16:36:36.439Z,0.60
2023-03-13T16:39:11.390Z,0.43
2023-03-13T16:41:39.220Z,0.52
2023-03-13T16:44:07.369Z,0.47
2023-03-13T16:46:38.166Z,0.70
2023-03-13T16:49:11.494Z,0.60
2023-03-13T16:51:39.454Z,0.50
2023-03-13T16:54:07.245Z,0.50
2023-03-13T16:56:41.731Z,0.60
2023-03-13T16:59:15.039Z,0.50
2023-03-13T17:01:42.908Z,0.70
2023-03-13T17:04:10.736Z,0.50
2023-03-13T17:06:42.475Z,0.38
2023-03-13T17:09:16.424Z,0.40
2023-03-13T17:11:45.129Z,0.60
2023-03-13T17:14:13.727Z,0.80
2023-03-13T17:16:43.851Z,0.68
2023-03-13T17:19:15.272Z,0.55
2023-03-13T17:24:11.106Z,0.50
2023-03-13T17:26:40.096Z,0.68
2023-03-13T17:29:11.161Z,0.60
2023-03-13T17:31:40.164Z,0.75
2023-03-13T17:34:09.215Z,0.57
2023-03-13T17:36:37.706Z,0.70
2023-03-13T17:39:09.135Z,0.68
2023-03-13T17:44:05.261Z,0.73
2023-03-13T17:46:38.559Z,0.70
2023-03-13T17:49:08.522Z,0.60
2023-03-13T17:51:37.076Z,0.70
2023-03-13T17:54:05.031Z,0.60
2023-03-13T17:56:38.850Z,1.15
2023-03-13T17:59:16.109Z,0.90
2023-03-13T18:01:44.432Z,0.95
2023-03-13T18:04:12.449Z,0.57
2023-03-13T18:06:43.418Z,0.80
2023-03-13T18:09:16.530Z,0.60
2023-03-13T18:11:44.688Z,0.65
2023-03-13T18:14:13.204Z,0.70
2023-03-13T18:16:51.304Z,1.52
2023-03-13T18:19:23.022Z,0.80
2023-03-13T18:21:52.999Z,0.63
2023-03-13T18:24:22.042Z,1.27
2023-03-13T18:26:50.857Z,0.85
2023-03-13T18:29:26.951Z,0.80
2023-03-13T18:31:56.882Z,0.60
2023-03-13T18:34:25.907Z,0.70
2023-03-13T18:36:54.420Z,0.70
2023-03-13T18:39:25.513Z,1.73
2023-03-13T18:41:53.674Z,0.70
2023-03-13T18:44:21.628Z,0.70
2023-03-13T18:46:51.304Z,0.77
2023-03-13T18:49:22.163Z,0.95
2023-03-13T18:51:51.396Z,0.90
2023-03-13T18:54:19.494Z,0.70
2023-03-13T18:56:48.241Z,0.98
2023-03-13T18:59:23.349Z,0.80
2023-03-13T19:01:51.807Z,0.73
2023-03-13T19:04:20.361Z,0.85
2023-03-13T19:06:49.141Z,0.70
2023-03-13T19:09:41.720Z,0.90
2023-03-13T19:12:07.186Z,0.80
2023-03-13T19:14:37.932Z,0.70
2023-03-13T19:17:10.899Z,0.75
2023-03-13T19:19:40.674Z,0.80
2023-03-13T19:22:13.359Z,0.88
2023-03-13T19:24:41.563Z,0.85
2023-03-13T19:27:15.372Z,0.90
2023-03-13T19:29:45.388Z,0.73
2023-03-13T19:32:18.233Z,0.90
2023-03-13T19:34:47.103Z,1.05
2023-03-13T19:37:16.293Z,0.80
2023-03-13T19:39:44.740Z,1.05
2023-03-13T19:42:12.957Z,0.70
2023-03-13T19:44:41.485Z,0.63
2023-03-13T19:47:16.080Z,0.80
2023-03-13T19:49:45.665Z,0.80
2023-03-13T19:52:15.842Z,0.88
2023-03-13T19:54:44.520Z,0.88
2023-03-13T19:57:12.889Z,0.65
2023-03-13T19:59:40.864Z,0.77
2023-03-13T20:02:10.224Z,1.00
2023-03-13T20:04:40.100Z,0.80
2023-03-13T20:07:10.286Z,0.80
2023-03-13T20:09:38.609Z,0.75
2023-03-13T20:12:06.970Z,0.75
2023-03-13T20:14:35.697Z,0.60
2023-03-13T20:17:04.850Z,0.70
2023-03-13T20:19:32.848Z,0.70
2023-03-13T20:22:04.479Z,0.80
2023-03-13T20:24:36.289Z,0.80
2023-03-13T20:27:04.691Z,1.13
2023-03-13T20:29:34.158Z,1.00
2023-03-13T20:32:06.264Z,0.82
2023-03-13T20:34:35.087Z,0.88
2023-03-13T20:37:04.559Z,1.42
2023-03-13T20:39:32.368Z,1.02
2023-03-13T20:42:02.629Z,0.80
2023-03-13T20:44:31.308Z,0.60
2023-03-13T20:46:59.296Z,0.90
2023-03-13T20:49:27.827Z,1.00
2023-03-13T20:51:56.344Z,0.60
2023-03-13T20:54:24.729Z,0.82
2023-03-13T20:56:52.978Z,0.77
2023-03-13T20:59:21.090Z,0.80
2023-03-13T21:01:49.819Z,0.85
2023-03-13T21:04:20.941Z,0.60
2023-03-13T21:06:50.387Z,0.70
2023-03-13T21:09:19.020Z,0.70
2023-03-13T21:11:49.771Z,0.95
2023-03-13T21:14:18.012Z,0.70
2023-03-13T21:16:46.288Z,0.70
2023-03-13T21:19:14.853Z,0.73
2023-03-13T21:21:42.748Z,0.40
2023-03-13T21:24:11.247Z,0.60
2023-03-13T21:26:39.234Z,0.65
2023-03-13T21:29:09.420Z,1.10
2023-03-13T21:31:39.295Z,0.80
2023-03-13T21:34:07.749Z,0.88
2023-03-13T21:36:35.809Z,1.02
2023-03-13T21:39:05.966Z,0.85
2023-03-13T21:41:35.598Z,0.77
2023-03-13T21:44:04.155Z,0.80
2023-03-13T21:46:33.531Z,0.77
2023-03-13T21:49:02.256Z,0.55
2023-03-13T21:51:32.479Z,0.70
2023-03-13T21:54:00.707Z,0.85
2023-03-13T21:56:28.943Z,0.80
2023-03-13T21:58:56.919Z,0.85
2023-03-13T22:01:25.469Z,0.60
2023-03-13T22:03:53.564Z,0.90
2023-03-13T22:06:22.923Z,0.73
2023-03-13T22:08:51.298Z,1.00
2023-03-13T22:11:19.400Z,0.98
2023-03-13T22:13:47.319Z,0.93
2023-03-13T22:16:15.696Z,0.90
2023-03-13T22:18:46.433Z,0.80
2023-03-13T22:21:15.286Z,0.95
2023-03-13T22:23:43.922Z,0.70
2023-03-13T22:26:13.056Z,0.77
2023-03-13T22:28:41.811Z,0.63
2023-03-13T22:31:12.176Z,1.95
2023-03-13T22:33:40.045Z,0.77
2023-03-13T22:36:08.706Z,1.20
2023-03-13T22:38:39.265Z,1.10
2023-03-13T22:41:10.029Z,0.70
2023-03-13T22:43:38.299Z,0.80
2023-03-13T22:46:07.434Z,0.80
2023-03-13T22:48:36.039Z,0.68
2023-03-13T22:51:08.674Z,0.70
2023-03-13T22:53:39.218Z,0.70
2023-03-13T22:56:10.217Z,0.73
2023-03-13T22:58:38.798Z,1.77
2023-03-13T23:01:09.131Z,0.93
2023-03-13T23:03:37.640Z,1.10
2023-03-13T23:06:10.340Z,1.13
2023-03-13T23:08:38.405Z,0.70
2023-03-13T23:11:06.621Z,0.60
2023-03-13T23:13:34.662Z,0.52
2023-03-13T23:16:06.587Z,0.80
2023-03-13T23:18:34.980Z,0.60
2023-03-13T23:21:10.849Z,0.73
2023-03-13T23:23:39.138Z,1.33
2023-03-13T23:26:09.574Z,0.75
2023-03-13T23:28:38.809Z,0.73
2023-03-13T23:31:15.447Z,1.00
2023-03-13T23:33:44.215Z,0.90
2023-03-13T23:36:15.404Z,0.93
2023-03-13T23:38:44.197Z,1.08
2023-03-13T23:41:14.360Z,0.73
2023-03-13T23:43:42.895Z,1.17
2023-03-13T23:46:18.105Z,0.80
2023-03-13T23:48:46.328Z,0.93
2023-03-13T23:51:14.715Z,0.70
2023-03-13T23:53:43.841Z,0.93
2023-03-13T23:56:12.467Z,1.20
2023-03-13T23:58:40.949Z,1.02
